Time;durP1;ratioP1;P1;durP2;ratioP2;P2;SDS_P1;SDS_P2;PMS_P1;PMS_P2;Temp;Humidity;BMP_temperature;BMP_pressure;BME280_temperature;BME280_humidity;BME280_pressure;Samples;Min_cycle;Max_cycle;Signal;HPM_P1;HPM_P2
2021/03/07 00:04:04;;;;;;;6.97;6.38;;;;;;;;;;10264625;28;20293;-86
2021/03/07 00:09:05;;;;;;;7.15;6.53;;;;;;;;;;10257655;29;20035;-85
2021/03/07 00:14:06;;;;;;;7.82;7.13;;;;;;;;;;10260455;28;20043;-85
2021/03/07 00:19:07;;;;;;;7.45;6.75;;;;;;;;;;10272264;29;20035;-85
2021/03/07 00:24:17;;;;;;;7.35;6.65;;;;;;;;;;10264061;28;20039;-85
2021/03/07 00:29:18;;;;;;;7.88;7.07;;;;;;;;;;10281489;29;20498;-87
2021/03/07 00:34:19;;;;;;;7.45;6.75;;;;;;;;;;10259038;28;20043;-84
2021/03/07 00:39:20;;;;;;;7.93;7.13;;;;;;;;;;10254128;28;20576;-86
2021/03/07 00:44:21;;;;;;;8.50;7.70;;;;;;;;;;10281264;28;20119;-86
2021/03/07 00:49:22;;;;;;;7.85;7.13;;;;;;;;;;10270753;29;20042;-85
2021/03/07 00:54:24;;;;;;;7.72;7.00;;;;;;;;;;10277590;28;20035;-86
2021/03/07 00:59:25;;;;;;;6.68;6.07;;;;;;;;;;10267477;29;20046;-87
2021/03/07 01:04:26;;;;;;;7.45;6.75;;;;;;;;;;10259845;28;20035;-86
2021/03/07 01:09:27;;;;;;;7.45;6.75;;;;;;;;;;10254862;29;20035;-86
2021/03/07 01:14:28;;;;;;;6.78;6.18;;;;;;;;;;10255732;28;20042;-86
2021/03/07 01:19:31;;;;;;;7.07;6.38;;;;;;;;;;10265230;29;20039;-86
2021/03/07 01:24:31;;;;;;;6.97;5.70;;;;;;;;;;10272926;28;20049;-86
2021/03/07 01:29:32;;;;;;;7.07;6.03;;;;;;;;;;10256045;29;20039;-85
2021/03/07 01:34:34;;;;;;;6.47;5.88;;;;;;;;;;10258804;28;20043;-85
2021/03/07 01:39:35;;;;;;;5.60;5.10;;;;;;;;;;10269368;29;20035;-86
2021/03/07 01:44:36;;;;;;;5.75;5.25;;;;;;;;;;10266030;28;20111;-87
2021/03/07 01:49:37;;;;;;;6.15;5.60;;;;;;;;;;10256290;29;20039;-86
2021/03/07 01:54:38;;;;;;;6.18;5.57;;;;;;;;;;10262998;28;20054;-87
2021/03/07 01:59:39;;;;;;;6.40;5.80;;;;;;;;;;10254347;29;20039;-86
2021/03/07 02:04:40;;;;;;;6.57;5.57;;;;;;;;;;10253465;28;20414;-85
2021/03/07 02:09:41;;;;;;;6.30;5.70;;;;;;;;;;10256624;29;20035;-88
2021/03/07 02:14:42;;;;;;;7.25;6.55;;;;;;;;;;10256196;28;20338;-86
2021/03/07 02:19:43;;;;;;;9.00;8.10;;;;;;;;;;10264643;29;20039;-86
2021/03/07 02:24:44;;;;;;;8.65;7.75;;;;;;;;;;10282383;28;20023;-88
2021/03/07 02:29:46;;;;;;;7.30;6.60;;;;;;;;;;10284517;29;20039;-85
2021/03/07 02:34:54;;;;;;;9.43;8.43;;;;;;;;;;10281929;28;20067;-87
2021/03/07 02:39:55;;;;;;;7.53;6.82;;;;;;;;;;10255906;29;20505;-87
2021/03/07 02:45:01;;;;;;;7.78;7.00;;;;;;;;;;10262057;28;20069;-85
2021/03/07 02:50:07;;;;;;;7.57;6.60;;;;;;;;;;10262584;29;20039;-85
2021/03/07 02:55:09;;;;;;;7.35;6.65;;;;;;;;;;10254855;28;20062;-85
2021/03/07 03:00:11;;;;;;;9.10;8.20;;;;;;;;;;10253139;29;20046;-86
2021/03/07 03:05:13;;;;;;;9.68;8.68;;;;;;;;;;10254209;28;20035;-86
2021/03/07 03:10:14;;;;;;;9.93;9.02;;;;;;;;;;10275806;28;20034;-83
2021/03/07 03:15:15;;;;;;;10.77;9.77;;;;;;;;;;10254456;28;20510;-86
2021/03/07 03:20:17;;;;;;;8.18;7.38;;;;;;;;;;10250664;29;20102;-86
2021/03/07 03:25:18;;;;;;;8.90;8.00;;;;;;;;;;10248823;28;20043;-86
2021/03/07 03:30:19;;;;;;;8.60;7.80;;;;;;;;;;10246832;29;20530;-86
2021/03/07 03:35:21;;;;;;;7.95;7.15;;;;;;;;;;10244950;28;20048;-87
2021/03/07 03:40:27;;;;;;;8.10;7.30;;;;;;;;;;10244453;29;20035;-85
2021/03/07 03:45:28;;;;;;;8.40;7.60;;;;;;;;;;10256879;28;20067;-85
2021/03/07 03:50:31;;;;;;;7.60;6.93;;;;;;;;;;10266583;29;20043;-86
2021/03/07 03:55:33;;;;;;;9.02;8.20;;;;;;;;;;10261098;28;20050;-85
2021/03/07 04:00:37;;;;;;;8.95;8.05;;;;;;;;;;10253041;29;20031;-86
2021/03/07 04:05:39;;;;;;;8.75;7.85;;;;;;;;;;10250786;28;20051;-86
2021/03/07 04:10:43;;;;;;;7.60;6.80;;;;;;;;;;10259841;29;20069;-86
2021/03/07 04:15:44;;;;;;;8.15;7.35;;;;;;;;;;10246661;28;20115;-86
2021/03/07 04:20:46;;;;;;;7.97;7.28;;;;;;;;;;10248988;29;20039;-86
2021/03/07 04:25:47;;;;;;;8.23;7.50;;;;;;;;;;10250298;28;20039;-85
2021/03/07 04:30:48;;;;;;;8.18;7.40;;;;;;;;;;10249427;29;20486;-86
2021/03/07 04:35:49;;;;;;;8.35;7.55;;;;;;;;;;10266269;28;20044;-85
2021/03/07 04:40:50;;;;;;;8.90;7.85;;;;;;;;;;10247880;29;20042;-86
2021/03/07 04:45:51;;;;;;;7.32;6.63;;;;;;;;;;10247926;28;20035;-86
2021/03/07 04:50:52;;;;;;;8.82;7.95;;;;;;;;;;10249470;29;20482;-85
2021/03/07 04:55:55;;;;;;;8.90;8.02;;;;;;;;;;10278423;23;20090;-85
2021/03/07 05:01:17;;;;;;;8.50;7.70;;;;;;;;;;10279077;28;20040;-86
2021/03/07 05:12:02;;;;;;;8.05;7.35;;;;;;;;;;10276327;29;20039;-86
2021/03/07 05:17:05;;;;;;;8.40;7.38;;;;;;;;;;10244422;29;20557;-86
2021/03/07 05:22:18;;;;;;;8.30;7.53;;;;;;;;;;10260317;29;20039;-85
2021/03/07 05:27:26;;;;;;;8.40;7.60;;;;;;;;;;10257423;28;20066;-86
2021/03/07 05:32:55;;;;;;;8.07;7.25;;;;;;;;;;10258867;29;20039;-86
2021/03/07 05:50:15;;;;;;;7.20;6.60;;;;;;;;;;10192067;29;20104;-85
2021/03/07 05:56:02;;;;;;;7.90;7.10;;;;;;;;;;10180153;29;20054;-86
2021/03/07 08:14:46;;;;;;;6.80;6.00;;;;;;;;;;10243480;29;20059;-86
2021/03/07 08:20:42;;;;;;;6.07;5.43;;;;;;;;;;10121437;29;20078;-86
2021/03/07 08:32:22;;;;;;;5.35;4.85;;;;;;;;;;10109756;29;20045;-86
2021/03/07 09:47:13;;;;;;;3.15;2.15;;;;;;;;;;10242823;29;20028;-86
2021/03/07 09:58:42;;;;;;;3.38;2.60;;;;;;;;;;10298334;28;20035;-84
2021/03/07 10:26:44;;;;;;;2.72;2.22;;;;;;;;;;10233514;28;20023;-86
2021/03/07 10:54:49;;;;;;;3.67;3.30;;;;;;;;;;10237737;28;20028;-86
2021/03/07 11:00:29;;;;;;;2.53;2.10;;;;;;;;;;10224604;29;20072;-87
2021/03/07 11:11:45;;;;;;;3.00;2.70;;;;;;;;;;10235595;29;20023;-85
2021/03/07 11:39:32;;;;;;;2.83;1.92;;;;;;;;;;10291136;29;20067;-86
2021/03/07 11:50:41;;;;;;;1.73;1.50;;;;;;;;;;10285593;28;20478;-85
2021/03/07 12:13:19;;;;;;;2.03;1.80;;;;;;;;;;10203332;29;20052;-86
2021/03/07 12:18:48;;;;;;;3.88;2.50;;;;;;;;;;10139179;29;20040;-85
2021/03/07 12:35:41;;;;;;;1.40;1.30;;;;;;;;;;10284250;28;20099;-86
2021/03/07 12:41:06;;;;;;;1.98;1.40;;;;;;;;;;10267514;28;20030;-85
2021/03/07 13:03:57;;;;;;;2.75;1.98;;;;;;;;;;10244398;29;20016;-85
2021/03/07 13:09:37;;;;;;;2.10;1.90;;;;;;;;;;10214780;29;20052;-85
2021/03/07 13:32:12;;;;;;;2.10;1.25;;;;;;;;;;10222548;29;20035;-86
2021/03/07 13:43:32;;;;;;;1.73;1.00;;;;;;;;;;10243740;29;20032;-86
2021/03/07 13:48:58;;;;;;;1.45;1.10;;;;;;;;;;10223191;29;20043;-86
2021/03/07 14:00:31;;;;;;;1.63;1.40;;;;;;;;;;10238526;29;20052;-85
2021/03/07 14:06:29;;;;;;;1.95;1.30;;;;;;;;;;10240225;29;20063;-86
2021/03/07 14:23:43;;;;;;;1.70;1.10;;;;;;;;;;10284030;29;20027;-84
2021/03/07 14:35:18;;;;;;;2.20;1.50;;;;;;;;;;10296121;29;20023;-85
2021/03/07 14:40:48;;;;;;;1.70;1.30;;;;;;;;;;10282686;29;20019;-85
2021/03/07 14:46:08;;;;;;;1.50;0.98;;;;;;;;;;10281415;29;20046;-84
2021/03/07 14:51:35;;;;;;;2.65;1.40;;;;;;;;;;10284143;28;20059;-85
2021/03/07 14:56:39;;;;;;;1.45;1.10;;;;;;;;;;10161127;29;20082;-86
2021/03/07 15:01:46;;;;;;;2.72;1.75;;;;;;;;;;10156531;29;20065;-86
2021/03/07 15:12:27;;;;;;;2.30;1.15;;;;;;;;;;10280536;29;20043;-87
2021/03/07 15:17:43;;;;;;;3.17;2.28;;;;;;;;;;10264879;29;20099;-86
2021/03/07 15:22:50;;;;;;;1.63;1.38;;;;;;;;;;10281623;28;20027;-86
2021/03/07 15:39:17;;;;;;;2.97;2.20;;;;;;;;;;10280857;28;20039;-86
2021/03/07 15:44:24;;;;;;;2.35;1.65;;;;;;;;;;10264409;29;20148;-86
2021/03/07 15:49:30;;;;;;;2.42;1.60;;;;;;;;;;10281479;29;20031;-85
2021/03/07 15:54:56;;;;;;;1.17;0.93;;;;;;;;;;10263085;28;20129;-87
2021/03/07 16:00:30;;;;;;;1.55;1.17;;;;;;;;;;10118520;29;20048;-86
2021/03/07 16:11:59;;;;;;;2.00;1.20;;;;;;;;;;10109449;29;20053;-86
2021/03/07 16:23:04;;;;;;;2.42;1.80;;;;;;;;;;10112413;29;20041;-86
2021/03/07 16:28:57;;;;;;;2.70;1.40;;;;;;;;;;10083435;29;20153;-85
2021/03/07 16:34:36;;;;;;;2.58;1.30;;;;;;;;;;10075278;29;20136;-86
2021/03/07 16:45:43;;;;;;;2.53;1.65;;;;;;;;;;10000838;29;20058;-85
2021/03/07 17:02:22;;;;;;;1.20;1.00;;;;;;;;;;10100768;29;20018;-86
2021/03/07 17:30:37;;;;;;;8.40;7.55;;;;;;;;;;10282833;28;20027;-85
2021/03/07 17:53:20;;;;;;;4.38;3.83;;;;;;;;;;10157857;29;20044;-85
